createdAt,value
2022-12-24T00:01:12.867Z,23.80
2022-12-24T00:03:39.410Z,23.75
2022-12-24T00:06:05.615Z,23.74
2022-12-24T00:08:32.045Z,23.76
2022-12-24T00:10:58.439Z,23.75
2022-12-24T00:13:24.809Z,23.75
2022-12-24T00:15:51.194Z,23.71
2022-12-24T00:18:17.577Z,23.72
2022-12-24T00:20:43.920Z,23.76
2022-12-24T00:23:10.302Z,23.71
2022-12-24T00:25:36.688Z,23.73
2022-12-24T00:28:03.151Z,23.73
2022-12-24T00:30:29.604Z,23.72
2022-12-24T00:32:55.883Z,23.74
2022-12-24T00:35:22.225Z,23.74
2022-12-24T00:37:48.626Z,23.75
2022-12-24T00:40:14.998Z,23.74
2022-12-24T00:42:41.393Z,23.71
2022-12-24T00:45:07.781Z,23.67
2022-12-24T00:47:34.160Z,23.68
2022-12-24T00:50:00.508Z,23.69
2022-12-24T00:52:26.924Z,23.69
2022-12-24T00:54:53.272Z,23.71
2022-12-24T00:57:19.690Z,23.68
2022-12-24T00:59:46.081Z,23.67
2022-12-24T01:02:12.608Z,23.68
2022-12-24T01:04:38.815Z,23.70
2022-12-24T01:07:05.237Z,23.71
2022-12-24T01:09:31.576Z,23.70
2022-12-24T01:11:58.279Z,23.68
2022-12-24T01:14:24.622Z,23.69
2022-12-24T01:16:51.010Z,23.70
2022-12-24T01:19:17.351Z,23.66
2022-12-24T01:21:43.739Z,23.67
2022-12-24T01:24:10.081Z,23.67
2022-12-24T01:26:36.470Z,23.67
2022-12-24T01:29:02.812Z,23.68
2022-12-24T01:31:29.329Z,23.68
2022-12-24T01:33:55.611Z,23.65
2022-12-24T01:36:22.008Z,23.61
2022-12-24T01:38:48.377Z,23.64
2022-12-24T01:41:14.769Z,23.65
2022-12-24T01:43:41.149Z,23.64
2022-12-24T01:46:07.668Z,23.65
2022-12-24T01:48:33.970Z,23.65
2022-12-24T01:51:00.361Z,23.65
2022-12-24T01:53:26.704Z,23.64
2022-12-24T01:55:53.089Z,23.62
2022-12-24T01:58:19.461Z,23.64
2022-12-24T02:00:45.862Z,23.62
2022-12-24T02:03:12.220Z,23.62
2022-12-24T02:05:38.623Z,23.64
2022-12-24T02:08:04.955Z,23.65
2022-12-24T02:10:31.329Z,23.65
2022-12-24T02:12:57.672Z,23.66
2022-12-24T02:15:24.067Z,23.68
2022-12-24T02:17:50.435Z,23.68
2022-12-24T02:20:16.839Z,23.68
2022-12-24T02:22:43.206Z,23.68
2022-12-24T02:25:09.593Z,23.71
2022-12-24T02:27:35.975Z,23.69
2022-12-24T02:30:02.364Z,23.70
2022-12-24T02:32:28.710Z,23.71
2022-12-24T02:34:55.095Z,23.70
2022-12-24T02:37:21.472Z,23.69
2022-12-24T02:39:47.857Z,23.69
2022-12-24T02:42:14.496Z,23.71
2022-12-24T02:44:40.873Z,23.71
2022-12-24T02:47:07.289Z,23.69
2022-12-24T02:49:33.604Z,23.71
2022-12-24T02:51:59.973Z,23.69
2022-12-24T02:54:26.414Z,23.71
2022-12-24T02:56:52.730Z,23.71
2022-12-24T02:59:19.117Z,23.72
2022-12-24T03:01:45.574Z,23.71
2022-12-24T03:04:11.879Z,23.72
2022-12-24T03:06:38.224Z,23.72
2022-12-24T03:09:04.649Z,23.72
2022-12-24T03:11:30.990Z,23.72
2022-12-24T03:13:57.409Z,23.73
2022-12-24T03:16:23.849Z,23.72
2022-12-24T03:18:50.182Z,23.72
2022-12-24T03:21:16.539Z,23.73
2022-12-24T03:23:42.965Z,23.74
2022-12-24T03:26:09.293Z,23.74
2022-12-24T03:28:35.708Z,23.73
2022-12-24T03:31:02.124Z,23.74
2022-12-24T03:33:28.472Z,23.74
2022-12-24T03:35:54.843Z,23.72
2022-12-24T03:38:21.230Z,23.73
2022-12-24T03:40:47.573Z,23.74
2022-12-24T03:43:13.976Z,23.74
2022-12-24T03:45:40.386Z,23.73
2022-12-24T03:48:06.763Z,23.73
2022-12-24T03:50:33.120Z,23.74
2022-12-24T03:52:59.561Z,23.74
2022-12-24T03:55:25.905Z,23.74
2022-12-24T03:57:52.335Z,23.75
2022-12-24T04:00:18.668Z,23.75
2022-12-24T04:02:45.176Z,23.74
2022-12-24T04:05:11.419Z,23.74
2022-12-24T04:07:37.805Z,23.74
2022-12-24T04:10:04.140Z,23.75
2022-12-24T04:12:30.569Z,23.75
2022-12-24T04:14:58.160Z,23.75
2022-12-24T04:17:23.293Z,23.75
2022-12-24T04:19:49.638Z,23.76
2022-12-24T04:22:16.035Z,23.76
2022-12-24T04:24:42.409Z,22.67
2022-12-24T04:27:08.819Z,22.35
2022-12-24T04:29:35.159Z,22.28
2022-12-24T04:32:01.737Z,22.27
2022-12-24T04:34:27.924Z,22.27
2022-12-24T04:36:54.315Z,22.27
2022-12-24T04:39:20.690Z,22.26
2022-12-24T04:41:47.091Z,22.25
2022-12-24T04:44:13.426Z,22.27
2022-12-24T04:46:39.861Z,22.24
2022-12-24T04:49:06.213Z,22.24
2022-12-24T04:51:32.647Z,22.25
2022-12-24T04:53:59.014Z,22.26
2022-12-24T04:56:25.431Z,22.26
2022-12-24T04:58:51.839Z,22.25
2022-12-24T05:01:20.543Z,22.26
2022-12-24T05:03:46.818Z,22.24
2022-12-24T05:06:13.289Z,22.26
2022-12-24T05:08:39.668Z,22.26
2022-12-24T05:11:06.118Z,22.69
2022-12-24T05:13:42.311Z,23.13
2022-12-24T05:15:58.814Z,23.35
2022-12-24T05:18:25.198Z,23.44
2022-12-24T05:20:51.597Z,23.50
2022-12-24T05:23:17.940Z,23.54
2022-12-24T05:25:44.325Z,23.57
2022-12-24T05:28:10.709Z,23.59
2022-12-24T05:30:37.088Z,23.62
2022-12-24T05:33:03.458Z,23.62
2022-12-24T05:35:29.824Z,23.65
2022-12-24T05:37:56.237Z,23.71
2022-12-24T05:40:22.653Z,23.70
2022-12-24T05:42:49.074Z,23.73
2022-12-24T05:45:16.604Z,23.76
2022-12-24T05:47:43.672Z,23.80
2022-12-24T05:50:08.220Z,23.81
2022-12-24T05:52:34.604Z,23.80
2022-12-24T05:55:00.948Z,23.75
2022-12-24T05:57:27.374Z,23.72
2022-12-24T05:59:53.718Z,23.74
2022-12-24T06:02:20.178Z,23.76
2022-12-24T06:04:46.565Z,23.74
2022-12-24T06:07:12.901Z,23.77
2022-12-24T06:09:39.254Z,23.77
2022-12-24T06:12:05.647Z,23.79
2022-12-24T06:14:32.399Z,23.77
2022-12-24T06:16:58.790Z,23.76
2022-12-24T06:19:25.127Z,23.76
2022-12-24T06:21:51.531Z,23.76
2022-12-24T06:24:17.946Z,23.74
2022-12-24T06:26:44.295Z,23.76
2022-12-24T06:29:10.680Z,23.76
2022-12-24T06:31:37.201Z,23.77
2022-12-24T06:34:03.438Z,23.76
2022-12-24T06:36:29.816Z,23.77
2022-12-24T06:38:56.203Z,23.76
2022-12-24T06:41:22.593Z,23.77
2022-12-24T06:43:48.955Z,23.77
2022-12-24T06:46:17.254Z,23.79
2022-12-24T06:48:41.708Z,23.80
2022-12-24T06:51:08.091Z,23.81
2022-12-24T06:53:34.472Z,23.83
2022-12-24T06:56:00.894Z,23.87
2022-12-24T06:58:27.246Z,23.85
2022-12-24T07:00:53.657Z,23.88
2022-12-24T07:03:20.060Z,23.88
2022-12-24T07:05:46.436Z,23.87
2022-12-24T07:08:12.795Z,23.89
2022-12-24T07:10:39.175Z,23.89
2022-12-24T07:13:05.549Z,23.88
2022-12-24T07:15:31.932Z,23.88
2022-12-24T07:17:58.286Z,23.87
2022-12-24T07:20:24.664Z,23.88
2022-12-24T07:22:51.017Z,23.87
2022-12-24T07:25:17.405Z,23.88
2022-12-24T07:27:43.778Z,23.89
2022-12-24T07:30:10.170Z,23.91
2022-12-24T07:32:36.531Z,23.91
2022-12-24T07:35:02.917Z,23.91
2022-12-24T07:37:29.248Z,23.92
2022-12-24T07:39:55.651Z,23.95
2022-12-24T07:42:22.003Z,23.98
2022-12-24T07:44:48.423Z,23.98
2022-12-24T07:47:14.762Z,24.00
2022-12-24T07:49:41.205Z,24.00
2022-12-24T07:52:07.547Z,24.01
2022-12-24T07:54:33.964Z,24.01
2022-12-24T07:57:00.353Z,24.01
2022-12-24T07:59:26.737Z,24.03
2022-12-24T08:01:53.284Z,24.06
2022-12-24T08:04:19.511Z,24.05
2022-12-24T08:06:45.870Z,24.06
2022-12-24T08:09:12.234Z,24.06
2022-12-24T08:11:38.582Z,24.09
2022-12-24T08:14:05.008Z,24.10
2022-12-24T08:16:31.380Z,24.10
2022-12-24T08:18:57.724Z,24.08
2022-12-24T08:21:24.084Z,24.08
2022-12-24T08:23:50.453Z,24.11
2022-12-24T08:26:16.827Z,24.11
2022-12-24T08:28:43.210Z,24.10
2022-12-24T08:31:10.998Z,24.12
2022-12-24T08:33:37.385Z,24.12
2022-12-24T08:36:02.360Z,24.11
2022-12-24T08:38:28.747Z,24.11
2022-12-24T08:40:55.100Z,24.10
2022-12-24T08:43:21.550Z,24.10
2022-12-24T08:45:47.984Z,24.11
2022-12-24T08:48:14.296Z,24.13
2022-12-24T08:50:40.644Z,24.13
2022-12-24T08:53:07.015Z,24.16
2022-12-24T08:55:33.368Z,24.15
2022-12-24T08:57:59.739Z,24.14
2022-12-24T09:00:26.119Z,24.13
2022-12-24T09:02:52.588Z,24.14
2022-12-24T09:05:18.856Z,24.17
2022-12-24T09:07:45.234Z,24.17
2022-12-24T09:10:11.591Z,24.13
2022-12-24T09:12:37.971Z,24.12
2022-12-24T09:15:04.611Z,24.15
2022-12-24T09:17:30.696Z,24.14
2022-12-24T09:19:57.119Z,24.14
2022-12-24T09:22:23.506Z,24.13
2022-12-24T09:24:49.850Z,24.15
2022-12-24T09:27:16.225Z,24.16
2022-12-24T09:29:42.635Z,24.15
2022-12-24T09:32:09.065Z,24.15
2022-12-24T09:34:35.389Z,24.15
2022-12-24T09:37:01.781Z,24.18
2022-12-24T09:39:28.159Z,24.18
2022-12-24T09:41:54.538Z,24.20
2022-12-24T09:44:20.924Z,24.19
2022-12-24T09:46:48.966Z,24.18
2022-12-24T09:49:13.655Z,24.21
2022-12-24T09:51:40.143Z,24.21
2022-12-24T09:54:06.481Z,24.23
2022-12-24T09:56:32.870Z,24.23
2022-12-24T09:58:59.241Z,24.26
2022-12-24T10:01:25.789Z,24.26
2022-12-24T10:03:52.150Z,24.25
2022-12-24T10:06:21.069Z,24.27
2022-12-24T10:08:44.762Z,24.29
2022-12-24T10:11:11.183Z,24.29
2022-12-24T10:13:37.547Z,24.30
2022-12-24T10:16:03.947Z,24.30
2022-12-24T10:18:30.307Z,24.29
2022-12-24T10:20:56.697Z,24.30
2022-12-24T10:23:23.066Z,24.31
2022-12-24T10:25:49.456Z,24.32
2022-12-24T10:28:15.793Z,24.34
2022-12-24T10:30:42.290Z,24.34
2022-12-24T10:33:08.596Z,24.36
2022-12-24T10:35:35.120Z,24.35
2022-12-24T10:38:01.531Z,24.39
2022-12-24T10:40:27.926Z,24.39
2022-12-24T10:42:54.307Z,24.42
2022-12-24T10:45:20.695Z,24.41
2022-12-24T10:47:47.064Z,24.43
2022-12-24T10:50:13.452Z,24.44
2022-12-24T10:52:39.796Z,24.43
2022-12-24T10:55:06.212Z,24.42
2022-12-24T10:57:32.548Z,24.42
2022-12-24T10:59:58.935Z,24.40
2022-12-24T11:02:25.643Z,24.40
2022-12-24T11:04:51.668Z,24.39
2022-12-24T11:07:18.009Z,24.36
2022-12-24T11:09:44.418Z,24.38
2022-12-24T11:12:10.765Z,24.36
2022-12-24T11:14:37.380Z,24.36
2022-12-24T11:17:03.711Z,24.39
2022-12-24T11:19:30.102Z,24.40
2022-12-24T11:21:56.470Z,24.39
2022-12-24T11:24:22.858Z,24.39
2022-12-24T11:26:50.178Z,24.40
2022-12-24T11:29:15.588Z,24.41
2022-12-24T11:31:41.944Z,24.39
2022-12-24T11:34:08.372Z,24.41
2022-12-24T11:36:34.745Z,24.39
2022-12-24T11:39:01.154Z,24.43
2022-12-24T11:41:27.486Z,24.47
2022-12-24T11:43:53.877Z,24.47
2022-12-24T11:46:20.267Z,24.48
2022-12-24T11:48:46.631Z,24.49
2022-12-24T11:51:12.975Z,24.54
2022-12-24T11:53:39.413Z,24.51
2022-12-24T11:56:05.739Z,24.50
2022-12-24T11:58:32.160Z,24.48
2022-12-24T12:00:58.508Z,24.46
2022-12-24T12:03:24.947Z,24.41
2022-12-24T12:05:51.248Z,24.40
2022-12-24T12:08:17.635Z,24.41
2022-12-24T12:10:44.009Z,24.42
2022-12-24T12:13:14.938Z,24.39
2022-12-24T12:15:36.788Z,24.36
2022-12-24T12:18:03.209Z,24.40
2022-12-24T12:20:29.546Z,24.36
2022-12-24T12:22:55.927Z,24.34
2022-12-24T12:25:22.328Z,24.33
2022-12-24T12:27:48.685Z,24.32
2022-12-24T12:30:15.070Z,24.31
2022-12-24T12:32:41.502Z,24.28
2022-12-24T12:35:07.844Z,24.28
2022-12-24T12:37:34.222Z,24.30
2022-12-24T12:40:00.609Z,24.32
2022-12-24T12:42:28.212Z,24.32
2022-12-24T12:44:53.377Z,24.33
2022-12-24T12:47:19.751Z,24.31
2022-12-24T12:49:46.134Z,24.32
2022-12-24T12:52:12.545Z,24.29
2022-12-24T12:54:38.896Z,24.25
2022-12-24T12:57:05.283Z,24.23
2022-12-24T12:59:31.628Z,24.23
2022-12-24T13:01:58.191Z,24.20
2022-12-24T13:04:24.373Z,24.18
2022-12-24T13:06:50.753Z,24.19
2022-12-24T13:09:17.089Z,24.18
2022-12-24T13:11:43.508Z,24.17
2022-12-24T13:14:09.848Z,24.15
2022-12-24T13:16:36.335Z,24.13
2022-12-24T13:19:02.639Z,24.14
2022-12-24T13:21:29.043Z,24.12
2022-12-24T13:23:55.398Z,24.11
2022-12-24T13:26:21.779Z,24.10
2022-12-24T13:28:48.143Z,24.09
2022-12-24T13:31:14.599Z,24.10
2022-12-24T13:33:40.950Z,24.10
2022-12-24T13:36:07.379Z,24.06
2022-12-24T13:38:33.717Z,24.04
2022-12-24T13:41:00.112Z,24.06
2022-12-24T13:43:26.448Z,24.08
2022-12-24T13:45:52.958Z,24.02
2022-12-24T13:48:19.317Z,23.99
2022-12-24T13:50:45.709Z,23.99
2022-12-24T13:53:12.083Z,24.00
2022-12-24T13:55:38.475Z,23.99
2022-12-24T13:58:04.848Z,23.95
2022-12-24T14:00:31.335Z,23.98
2022-12-24T14:02:57.884Z,23.97
2022-12-24T14:05:23.979Z,23.92
2022-12-24T14:07:50.381Z,23.92
2022-12-24T14:10:16.719Z,23.92
2022-12-24T14:12:43.164Z,23.91
2022-12-24T14:15:09.538Z,23.94
2022-12-24T14:17:35.887Z,23.94
2022-12-24T14:20:02.301Z,23.92
2022-12-24T14:22:28.653Z,23.91
2022-12-24T14:24:55.065Z,23.87
2022-12-24T14:27:21.406Z,23.85
2022-12-24T14:29:47.837Z,23.83
2022-12-24T14:32:14.264Z,23.82
2022-12-24T14:34:40.619Z,23.82
2022-12-24T14:37:06.959Z,23.80
2022-12-24T14:39:33.376Z,23.80
2022-12-24T14:41:59.720Z,23.80
2022-12-24T14:44:29.746Z,23.80
2022-12-24T14:46:52.491Z,23.84
2022-12-24T14:49:18.874Z,23.82
2022-12-24T14:51:45.224Z,23.76
2022-12-24T14:54:11.649Z,23.75
2022-12-24T14:56:37.986Z,23.76
2022-12-24T14:59:04.385Z,23.82
2022-12-24T15:01:30.908Z,23.84
2022-12-24T15:03:57.156Z,23.86
2022-12-24T15:06:23.518Z,23.87
2022-12-24T15:08:49.911Z,23.86
2022-12-24T15:11:16.281Z,23.87
2022-12-24T15:13:42.698Z,23.88
2022-12-24T15:16:09.112Z,23.91
2022-12-24T15:18:35.431Z,23.91
2022-12-24T15:21:04.287Z,23.91
2022-12-24T15:23:28.167Z,23.94
2022-12-24T15:25:54.496Z,23.92
2022-12-24T15:28:20.899Z,23.91
2022-12-24T15:30:47.295Z,23.92
2022-12-24T15:33:13.631Z,23.92
2022-12-24T15:35:39.985Z,23.92
2022-12-24T15:38:06.382Z,23.92
2022-12-24T15:40:32.711Z,23.91
2022-12-24T15:42:59.167Z,23.91
2022-12-24T15:45:28.475Z,23.91
2022-12-24T15:47:51.914Z,23.91
2022-12-24T15:50:18.286Z,23.92
2022-12-24T15:52:44.642Z,23.91
2022-12-24T15:55:11.015Z,23.91
2022-12-24T15:57:37.405Z,23.90
2022-12-24T16:00:03.778Z,23.91
2022-12-24T16:02:30.455Z,23.89
2022-12-24T16:04:56.533Z,23.90
2022-12-24T16:07:22.880Z,23.89
2022-12-24T16:09:49.268Z,23.89
2022-12-24T16:12:15.637Z,23.89
2022-12-24T16:14:42.056Z,23.90
2022-12-24T16:17:08.390Z,23.88
2022-12-24T16:19:40.049Z,23.90
2022-12-24T16:22:01.161Z,23.90
2022-12-24T16:24:27.537Z,23.90
2022-12-24T16:26:53.894Z,23.89
2022-12-24T16:29:20.260Z,23.89
2022-12-24T16:31:46.610Z,23.86
2022-12-24T16:34:13.051Z,23.88
2022-12-24T16:36:39.418Z,23.86
2022-12-24T16:39:05.825Z,23.87
2022-12-24T16:41:32.174Z,23.86
2022-12-24T16:43:58.601Z,23.85
2022-12-24T16:46:25.001Z,23.86
2022-12-24T16:48:51.323Z,23.86
2022-12-24T16:51:17.660Z,23.86
2022-12-24T16:53:44.091Z,23.88
2022-12-24T16:56:10.427Z,23.87
2022-12-24T16:58:36.857Z,23.85
2022-12-24T17:01:03.306Z,23.85
2022-12-24T17:03:29.693Z,23.86
2022-12-24T17:05:55.975Z,23.88
2022-12-24T17:08:22.409Z,23.86
2022-12-24T17:10:48.768Z,23.89
2022-12-24T17:13:15.213Z,23.90
2022-12-24T17:15:41.564Z,23.88
2022-12-24T17:18:07.940Z,23.91
2022-12-24T17:20:34.322Z,23.91
2022-12-24T17:23:00.706Z,23.91
2022-12-24T17:25:27.075Z,23.90
2022-12-24T17:27:53.433Z,23.89
2022-12-24T17:30:19.823Z,23.90
2022-12-24T17:32:46.232Z,23.90
2022-12-24T17:35:12.598Z,23.91
2022-12-24T17:37:39.163Z,23.89
2022-12-24T17:40:05.519Z,23.89
2022-12-24T17:42:31.909Z,23.90
2022-12-24T17:44:58.255Z,23.89
2022-12-24T17:47:24.684Z,23.86
2022-12-24T17:49:51.009Z,23.87
2022-12-24T17:52:17.425Z,23.85
2022-12-24T17:54:43.764Z,23.84
2022-12-24T17:57:10.157Z,23.84
2022-12-24T17:59:36.493Z,23.83
2022-12-24T18:02:02.976Z,23.84
2022-12-24T18:04:29.308Z,23.84
2022-12-24T18:07:02.150Z,23.82
2022-12-24T18:09:22.066Z,23.81
2022-12-24T18:11:48.450Z,23.84
2022-12-24T18:14:14.829Z,23.83
2022-12-24T18:16:41.282Z,23.83
2022-12-24T18:19:07.610Z,23.82
2022-12-24T18:21:34.012Z,23.82
2022-12-24T18:24:00.396Z,23.83
2022-12-24T18:26:26.765Z,23.82
2022-12-24T18:28:53.110Z,23.82
2022-12-24T18:31:19.561Z,23.82
2022-12-24T18:33:45.843Z,23.83
2022-12-24T18:36:12.269Z,23.81
2022-12-24T18:38:38.606Z,23.80
2022-12-24T18:41:05.033Z,23.77
2022-12-24T18:43:31.383Z,23.77
2022-12-24T18:45:57.794Z,23.74
2022-12-24T18:48:25.365Z,23.75
2022-12-24T18:50:50.525Z,23.77
2022-12-24T18:55:59.154Z,23.79
2022-12-24T18:58:25.561Z,23.80
2022-12-24T19:00:51.959Z,23.81
2022-12-24T19:03:18.375Z,23.82
2022-12-24T19:05:44.659Z,23.81
2022-12-24T19:08:37.816Z,23.82
2022-12-24T19:10:37.427Z,23.84
2022-12-24T19:13:03.806Z,23.84
2022-12-24T19:15:35.620Z,23.83
2022-12-24T19:17:56.572Z,23.85
2022-12-24T19:20:22.950Z,23.87
2022-12-24T19:22:49.333Z,23.87
2022-12-24T19:25:15.680Z,23.88
2022-12-24T19:27:43.082Z,23.91
2022-12-24T19:30:08.464Z,23.89
2022-12-24T19:32:34.841Z,23.90
2022-12-24T19:35:01.179Z,23.90
2022-12-24T19:37:27.606Z,23.88
2022-12-24T19:39:53.937Z,23.90
2022-12-24T19:42:20.351Z,23.92
2022-12-24T19:44:46.702Z,23.92
2022-12-24T19:47:13.094Z,23.94
2022-12-24T19:49:39.431Z,23.94
2022-12-24T19:52:05.851Z,23.94
2022-12-24T19:54:32.222Z,23.95
2022-12-24T19:56:58.619Z,23.92
2022-12-24T19:59:24.967Z,23.92
2022-12-24T20:01:51.484Z,23.96
2022-12-24T20:04:17.720Z,23.92
2022-12-24T20:06:44.124Z,23.89
2022-12-24T20:09:10.494Z,23.87
2022-12-24T20:11:36.872Z,23.87
2022-12-24T20:14:03.256Z,23.89
2022-12-24T20:16:29.753Z,23.90
2022-12-24T20:18:58.974Z,23.90
2022-12-24T20:21:25.390Z,23.89
2022-12-24T20:23:51.768Z,23.91
2022-12-24T20:26:18.152Z,23.92
2022-12-24T20:28:44.514Z,23.95
2022-12-24T20:31:10.933Z,23.96
2022-12-24T20:33:37.276Z,23.96
2022-12-24T20:36:03.740Z,23.97
2022-12-24T20:38:30.075Z,23.99
2022-12-24T20:40:56.475Z,24.01
2022-12-24T20:43:24.630Z,24.03
2022-12-24T20:45:49.366Z,24.03
2022-12-24T20:48:15.644Z,23.99
2022-12-24T20:50:42.031Z,24.00
2022-12-24T20:53:08.392Z,24.00
2022-12-24T20:55:34.785Z,24.03
2022-12-24T20:58:01.118Z,24.00
2022-12-24T21:00:27.498Z,24.00
2022-12-24T21:02:54.021Z,24.04
2022-12-24T21:05:20.262Z,24.04
2022-12-24T21:07:46.647Z,24.04
2022-12-24T21:10:13.053Z,24.01
2022-12-24T21:12:39.373Z,24.03
2022-12-24T21:15:06.830Z,24.02
2022-12-24T21:20:14.381Z,24.03
2022-12-24T21:22:40.806Z,24.01
2022-12-24T21:25:07.142Z,24.04
2022-12-24T21:27:33.546Z,24.03
2022-12-24T21:29:59.869Z,24.06
2022-12-24T21:32:26.289Z,24.04
2022-12-24T21:34:52.658Z,24.08
2022-12-24T21:37:19.069Z,24.08
2022-12-24T21:39:47.361Z,24.11
2022-12-24T21:42:11.814Z,24.08
2022-12-24T21:44:38.217Z,24.06
2022-12-24T21:47:04.555Z,24.08
2022-12-24T21:49:31.929Z,24.06
2022-12-24T21:51:58.334Z,24.10
2022-12-24T21:54:24.668Z,24.08
2022-12-24T21:56:51.132Z,24.09
2022-12-24T21:59:20.809Z,24.10
2022-12-24T22:01:44.012Z,24.08
2022-12-24T22:04:10.263Z,24.05
2022-12-24T22:06:36.659Z,24.06
2022-12-24T22:09:03.034Z,24.09
2022-12-24T22:11:29.417Z,24.12
2022-12-24T22:13:55.763Z,24.12
2022-12-24T22:16:22.204Z,24.12
2022-12-24T22:18:48.496Z,24.14
2022-12-24T22:21:14.908Z,24.15
2022-12-24T22:23:42.686Z,24.13
2022-12-24T22:26:07.677Z,24.12
2022-12-24T22:28:34.035Z,24.14
2022-12-24T22:31:00.507Z,24.17
2022-12-24T22:33:26.793Z,24.20
2022-12-24T22:35:53.204Z,24.21
2022-12-24T22:38:19.532Z,24.21
2022-12-24T22:40:45.931Z,24.21
2022-12-24T22:43:12.278Z,24.23
2022-12-24T22:45:38.668Z,24.24
2022-12-24T22:48:05.020Z,24.25
2022-12-24T22:50:31.474Z,24.24
2022-12-24T22:52:57.792Z,24.25
2022-12-24T22:55:24.316Z,24.24
2022-12-24T22:57:50.689Z,24.23
2022-12-24T23:00:17.106Z,24.25
2022-12-24T23:02:43.547Z,24.24
2022-12-24T23:05:09.869Z,24.24
2022-12-24T23:07:36.211Z,24.23
2022-12-24T23:10:02.630Z,24.20
2022-12-24T23:12:29.000Z,24.23
2022-12-24T23:14:55.385Z,24.23
2022-12-24T23:17:21.739Z,24.24
2022-12-24T23:19:48.129Z,24.26
2022-12-24T23:22:14.505Z,24.30
2022-12-24T23:24:40.899Z,24.29
2022-12-24T23:27:07.251Z,24.29
2022-12-24T23:29:33.656Z,24.29
2022-12-24T23:32:01.113Z,24.28
2022-12-24T23:34:27.516Z,24.27
2022-12-24T23:36:53.851Z,24.26
2022-12-24T23:39:20.235Z,24.26
2022-12-24T23:41:46.592Z,24.25
2022-12-24T23:44:12.968Z,24.27
2022-12-24T23:46:39.409Z,24.27
2022-12-24T23:49:05.724Z,24.27
2022-12-24T23:51:33.027Z,24.25
2022-12-24T23:53:59.637Z,24.23
2022-12-24T23:56:24.811Z,24.20
2022-12-24T23:58:51.249Z,24.20
